MSC Musica — 3EFK6 — position and weather

sailwx.info

Track history (hours):
 
Tides and Currents Weather Stations Pressure Air Temp Water Temp Dewpoint Dewpoint Depression Visibility Wind Speed Wind Dir Waves Ship Positions

MSC Musica

Last reported at 2018-Jun-24 20:25 UTC. Time now 2018-Jun-25 00:40 UTC.
Position N 44°15' E 013°54'.

Length 292 m; draft 7.8 m.

Type: Ship. MMSI: 352003000.

Date/timePositionNaut miles runAvg speedWind from/ knotsBaromVisibWave heightAir tempDewpointWater temp
2018-Jun-24 20:25N 44°15' E 013°54'921.7
2018-Jun-24 20:00N 44°22' E 013°47'1121.8
2018-Jun-24 19:30N 44°32' E 013°39'1121.7
2018-Jun-24 19:01N 44°41' E 013°30'1121.6
2018-Jun-24 18:30N 44°50' E 013°22'1121.3
2018-Jun-24 18:00N 44°58' E 013°13'1121.4
2018-Jun-24 17:30N 45°06' E 013°02'1121.2
2018-Jun-24 17:00N 45°13' E 012°51'1020.2
2018-Jun-24 16:30N 45°19' E 012°40'917.3
2018-Jun-24 16:00N 45°24' E 012°29'5 9.9
2018-Jun-24 15:30N 45°26' E 012°23'2 4.7
2018-Jun-24 15:00N 45°26' E 012°20'1 1.7
2018-Jun-24 14:29N 45°26' E 012°19'0 0.0
2018-Jun-24 13:58N 45°26' E 012°19'0 0.0
2018-Jun-24 13:28N 45°26' E 012°19'0 0.0
2018-Jun-24 12:58N 45°26' E 012°19'0 0.0
2018-Jun-24 12:28N 45°26' E 012°19'0 0.0
2018-Jun-24 11:58N 45°26' E 012°19'0 0.0
2018-Jun-24 11:28N 45°26' E 012°19'0 0.0
2018-Jun-24 10:58N 45°26' E 012°19'0 0.0
2018-Jun-24 10:28N 45°26' E 012°19'0 0.0
2018-Jun-24 09:58N 45°26' E 012°19'0 0.0
2018-Jun-24 09:28N 45°26' E 012°19'0 0.0
2018-Jun-24 08:58N 45°26' E 012°19'0 0.0
2018-Jun-24 08:28N 45°26' E 012°19'0 0.0
2018-Jun-24 07:56N 45°26' E 012°19'0 0.0
2018-Jun-24 07:29N 45°26' E 012°19'0 0.0
2018-Jun-24 06:59N 45°26' E 012°19'0 0.0
2018-Jun-24 06:29N 45°26' E 012°19'1 1.7
2018-Jun-24 06:00N 45°26' E 012°20'2 4.8
2018-Jun-24 05:30N 45°26' E 012°23'5 9.1
2018-Jun-24 05:00N 45°24' E 012°29'817.2
2018-Jun-24 04:31N 45°20' E 012°39'1019.9
2018-Jun-24 04:00N 45°14' E 012°51'1020.6
2018-Jun-24 03:30N 45°08' E 013°03'1021.2
2018-Jun-24 03:01N 45°01' E 013°14'1121.9
2018-Jun-24 02:30N 44°53' E 013°25'1122.0
2018-Jun-24 02:01N 44°44' E 013°33'1121.8
2018-Jun-24 01:30N 44°35' E 013°42'1121.8
2018-Jun-24 01:00N 44°26' E 013°50'1121.8
2018-Jun-24 00:30N 44°17' E 013°59'  
2018-Jun-21 16:45N 36°55' E 023°30'521.4
2018-Jun-21 16:30N 36°60' E 023°32'1121.6
2018-Jun-21 16:00N 37°10' E 023°35'1121.6
2018-Jun-21 15:30N 37°21' E 023°37'1121.1
2018-Jun-21 15:00N 37°31' E 023°40'1020.5
2018-Jun-21 14:30N 37°42' E 023°41'1021.0
2018-Jun-21 14:00N 37°52' E 023°37'5 9.9
2018-Jun-21 13:30N 37°56' E 023°38'0 0.1
2018-Jun-21 12:58N 37°56' E 023°38'0 0.0
2018-Jun-21 12:28N 37°56' E 023°38'0 0.0
2018-Jun-21 11:58N 37°56' E 023°38'0 0.0
2018-Jun-21 11:28N 37°56' E 023°38'0 0.0
2018-Jun-21 10:58N 37°56' E 023°38'0 0.0
2018-Jun-21 10:28N 37°56' E 023°38'0 0.0
2018-Jun-21 09:58N 37°56' E 023°38'0 0.0
2018-Jun-21 09:28N 37°56' E 023°38'0 0.0
2018-Jun-21 08:58N 37°56' E 023°38'0 0.0
2018-Jun-21 08:28N 37°56' E 023°38'0 0.0
2018-Jun-21 07:58N 37°56' E 023°38'0 0.0
2018-Jun-21 07:28N 37°56' E 023°38'0 0.0
2018-Jun-21 06:58N 37°56' E 023°38'0 0.0
2018-Jun-21 06:28N 37°56' E 023°38'0 0.0
2018-Jun-21 05:58N 37°56' E 023°38'0 0.0
2018-Jun-21 05:28N 37°56' E 023°38'0 0.0
2018-Jun-21 04:58N 37°56' E 023°38'0 0.0
2018-Jun-21 04:28N 37°56' E 023°38'0 0.0
2018-Jun-21 03:58N 37°56' E 023°38'0 0.1
2018-Jun-21 03:30N 37°56' E 023°38'2 3.3
2018-Jun-21 03:00N 37°56' E 023°36'2 4.7
2018-Jun-21 02:30N 37°53' E 023°38'611.7
2018-Jun-21 02:00N 37°48' E 023°41'713.5
2018-Jun-21 01:30N 37°42' E 023°45'613.0
2018-Jun-21 01:00N 37°37' E 023°50'612.7
2018-Jun-21 00:30N 37°33' E 023°55'  
2018-Jun-17 18:51N 44°38' E 013°32'721.6
2018-Jun-17 18:30N 44°45' E 013°26'1121.4
2018-Jun-17 18:00N 44°53' E 013°18'1121.3
2018-Jun-17 17:30N 45°01' E 013°08'1121.4
2018-Jun-17 17:00N 45°09' E 012°57'1121.4
2018-Jun-17 16:30N 45°16' E 012°46'1020.5
2018-Jun-17 16:00N 45°22' E 012°34'713.1
2018-Jun-17 15:30N 45°25' E 012°26'3 6.3
2018-Jun-17 15:00N 45°26' E 012°21'2 4.0
2018-Jun-17 14:30N 45°26' E 012°19'0 0.0
2018-Jun-17 13:58N 45°26' E 012°19'0 0.0
2018-Jun-17 13:28N 45°26' E 012°19'0 0.0
2018-Jun-17 12:58N 45°26' E 012°19'0 0.0
2018-Jun-17 12:30N 45°26' E 012°19'0 0.0
2018-Jun-17 12:00N 45°26' E 012°19'0 0.0
2018-Jun-17 11:30N 45°26' E 012°19'0 0.0
2018-Jun-17 11:00N 45°26' E 012°19'0 0.0
2018-Jun-17 10:30N 45°26' E 012°19'0 0.0
2018-Jun-17 10:00N 45°26' E 012°19'0 0.0
2018-Jun-17 09:30N 45°26' E 012°19'0 0.0
2018-Jun-17 09:00N 45°26' E 012°19'0 0.0
2018-Jun-17 08:30N 45°26' E 012°19'0 0.0
2018-Jun-17 08:00N 45°26' E 012°19'0 0.0
2018-Jun-17 07:30N 45°26' E 012°19'0 0.0
2018-Jun-17 07:00N 45°26' E 012°19'0 0.0
2018-Jun-17 06:30N 45°26' E 012°19'0 0.7
2018-Jun-17 06:00N 45°26' E 012°19'3 5.2
2018-Jun-17 05:30N 45°26' E 012°23'4 7.7
2018-Jun-17 05:00N 45°24' E 012°28'715.3
2018-Jun-17 04:30N 45°21' E 012°37'1019.9
2018-Jun-17 04:00N 45°15' E 012°48'1020.2
2018-Jun-17 03:30N 45°08' E 012°60'1020.1
2018-Jun-17 03:00N 45°02' E 013°11'1020.2
2018-Jun-17 02:30N 44°56' E 013°22'1121.4
2018-Jun-17 02:00N 44°47' E 013°31'1121.5
2018-Jun-17 01:30N 44°38' E 013°39'1121.1
2018-Jun-17 00:58N 44°28' E 013°48'1021.3
2018-Jun-17 00:30N 44°20' E 013°55'1121.3
2018-Jun-17 00:00N 44°12' E 014°04'  
Track history (hours):
 
Tides and Currents Weather Stations Pressure Air Temp Water Temp Dewpoint Dewpoint Depression Visibility Wind Speed Wind Dir Waves Ship Positions

MSC Musica

Last reported at 2018-Jun-24 20:25 UTC. Time now 2018-Jun-25 00:40 UTC.
Position N 44°15' E 013°54'.

Length 292 m; draft 7.8 m.

Type: Ship. MMSI: 352003000.

Date/timePositionNaut miles runAvg speedWind from/ knotsBaromVisibWave heightAir tempDewpointWater temp
2018-Jun-24 20:25N 44°15' E 013°54'921.7
2018-Jun-24 20:00N 44°22' E 013°47'1121.8
2018-Jun-24 19:30N 44°32' E 013°39'1121.7
2018-Jun-24 19:01N 44°41' E 013°30'1121.6
2018-Jun-24 18:30N 44°50' E 013°22'1121.3
2018-Jun-24 18:00N 44°58' E 013°13'1121.4
2018-Jun-24 17:30N 45°06' E 013°02'1121.2
2018-Jun-24 17:00N 45°13' E 012°51'1020.2
2018-Jun-24 16:30N 45°19' E 012°40'917.3
2018-Jun-24 16:00N 45°24' E 012°29'5 9.9
2018-Jun-24 15:30N 45°26' E 012°23'2 4.7
2018-Jun-24 15:00N 45°26' E 012°20'1 1.7
2018-Jun-24 14:29N 45°26' E 012°19'0 0.0
2018-Jun-24 13:58N 45°26' E 012°19'0 0.0
2018-Jun-24 13:28N 45°26' E 012°19'0 0.0
2018-Jun-24 12:58N 45°26' E 012°19'0 0.0
2018-Jun-24 12:28N 45°26' E 012°19'0 0.0
2018-Jun-24 11:58N 45°26' E 012°19'0 0.0
2018-Jun-24 11:28N 45°26' E 012°19'0 0.0
2018-Jun-24 10:58N 45°26' E 012°19'0 0.0
2018-Jun-24 10:28N 45°26' E 012°19'0 0.0
2018-Jun-24 09:58N 45°26' E 012°19'0 0.0
2018-Jun-24 09:28N 45°26' E 012°19'0 0.0
2018-Jun-24 08:58N 45°26' E 012°19'0 0.0
2018-Jun-24 08:28N 45°26' E 012°19'0 0.0
2018-Jun-24 07:56N 45°26' E 012°19'0 0.0
2018-Jun-24 07:29N 45°26' E 012°19'0 0.0
2018-Jun-24 06:59N 45°26' E 012°19'0 0.0
2018-Jun-24 06:29N 45°26' E 012°19'1 1.7
2018-Jun-24 06:00N 45°26' E 012°20'2 4.8
2018-Jun-24 05:30N 45°26' E 012°23'5 9.1
2018-Jun-24 05:00N 45°24' E 012°29'817.2
2018-Jun-24 04:31N 45°20' E 012°39'1019.9
2018-Jun-24 04:00N 45°14' E 012°51'1020.6
2018-Jun-24 03:30N 45°08' E 013°03'1021.2
2018-Jun-24 03:01N 45°01' E 013°14'1121.9
2018-Jun-24 02:30N 44°53' E 013°25'1122.0
2018-Jun-24 02:01N 44°44' E 013°33'1121.8
2018-Jun-24 01:30N 44°35' E 013°42'1121.8
2018-Jun-24 01:00N 44°26' E 013°50'1121.8
2018-Jun-24 00:30N 44°17' E 013°59'  
2018-Jun-21 16:45N 36°55' E 023°30'521.4
2018-Jun-21 16:30N 36°60' E 023°32'1121.6
2018-Jun-21 16:00N 37°10' E 023°35'1121.6
2018-Jun-21 15:30N 37°21' E 023°37'1121.1
2018-Jun-21 15:00N 37°31' E 023°40'1020.5
2018-Jun-21 14:30N 37°42' E 023°41'1021.0
2018-Jun-21 14:00N 37°52' E 023°37'5 9.9
2018-Jun-21 13:30N 37°56' E 023°38'0 0.1
2018-Jun-21 12:58N 37°56' E 023°38'0 0.0
2018-Jun-21 12:28N 37°56' E 023°38'0 0.0
2018-Jun-21 11:58N 37°56' E 023°38'0 0.0
2018-Jun-21 11:28N 37°56' E 023°38'0 0.0
2018-Jun-21 10:58N 37°56' E 023°38'0 0.0
2018-Jun-21 10:28N 37°56' E 023°38'0 0.0
2018-Jun-21 09:58N 37°56' E 023°38'0 0.0
2018-Jun-21 09:28N 37°56' E 023°38'0 0.0
2018-Jun-21 08:58N 37°56' E 023°38'0 0.0
2018-Jun-21 08:28N 37°56' E 023°38'0 0.0
2018-Jun-21 07:58N 37°56' E 023°38'0 0.0
2018-Jun-21 07:28N 37°56' E 023°38'0 0.0
2018-Jun-21 06:58N 37°56' E 023°38'0 0.0
2018-Jun-21 06:28N 37°56' E 023°38'0 0.0
2018-Jun-21 05:58N 37°56' E 023°38'0 0.0
2018-Jun-21 05:28N 37°56' E 023°38'0 0.0
2018-Jun-21 04:58N 37°56' E 023°38'0 0.0
2018-Jun-21 04:28N 37°56' E 023°38'0 0.0
2018-Jun-21 03:58N 37°56' E 023°38'0 0.1
2018-Jun-21 03:30N 37°56' E 023°38'2 3.3
2018-Jun-21 03:00N 37°56' E 023°36'2 4.7
2018-Jun-21 02:30N 37°53' E 023°38'611.7
2018-Jun-21 02:00N 37°48' E 023°41'713.5
2018-Jun-21 01:30N 37°42' E 023°45'613.0
2018-Jun-21 01:00N 37°37' E 023°50'612.7
2018-Jun-21 00:30N 37°33' E 023°55'  
2018-Jun-17 18:51N 44°38' E 013°32'721.6
2018-Jun-17 18:30N 44°45' E 013°26'1121.4
2018-Jun-17 18:00N 44°53' E 013°18'1121.3
2018-Jun-17 17:30N 45°01' E 013°08'1121.4
2018-Jun-17 17:00N 45°09' E 012°57'1121.4
2018-Jun-17 16:30N 45°16' E 012°46'1020.5
2018-Jun-17 16:00N 45°22' E 012°34'713.1
2018-Jun-17 15:30N 45°25' E 012°26'3 6.3
2018-Jun-17 15:00N 45°26' E 012°21'2 4.0
2018-Jun-17 14:30N 45°26' E 012°19'0 0.0
2018-Jun-17 13:58N 45°26' E 012°19'0 0.0
2018-Jun-17 13:28N 45°26' E 012°19'0 0.0
2018-Jun-17 12:58N 45°26' E 012°19'0 0.0
2018-Jun-17 12:30N 45°26' E 012°19'0 0.0
2018-Jun-17 12:00N 45°26' E 012°19'0 0.0
2018-Jun-17 11:30N 45°26' E 012°19'0 0.0
2018-Jun-17 11:00N 45°26' E 012°19'0 0.0
2018-Jun-17 10:30N 45°26' E 012°19'0 0.0
2018-Jun-17 10:00N 45°26' E 012°19'0 0.0
2018-Jun-17 09:30N 45°26' E 012°19'0 0.0
2018-Jun-17 09:00N 45°26' E 012°19'0 0.0
2018-Jun-17 08:30N 45°26' E 012°19'0 0.0
2018-Jun-17 08:00N 45°26' E 012°19'0 0.0
2018-Jun-17 07:30N 45°26' E 012°19'0 0.0
2018-Jun-17 07:00N 45°26' E 012°19'0 0.0
2018-Jun-17 06:30N 45°26' E 012°19'0 0.7
2018-Jun-17 06:00N 45°26' E 012°19'3 5.2
2018-Jun-17 05:30N 45°26' E 012°23'4 7.7
2018-Jun-17 05:00N 45°24' E 012°28'715.3
2018-Jun-17 04:30N 45°21' E 012°37'1019.9
2018-Jun-17 04:00N 45°15' E 012°48'1020.2
2018-Jun-17 03:30N 45°08' E 012°60'1020.1
2018-Jun-17 03:00N 45°02' E 013°11'1020.2
2018-Jun-17 02:30N 44°56' E 013°22'1121.4
2018-Jun-17 02:00N 44°47' E 013°31'1121.5
2018-Jun-17 01:30N 44°38' E 013°39'1121.1
2018-Jun-17 00:58N 44°28' E 013°48'1021.3
2018-Jun-17 00:30N 44°20' E 013°55'1121.3
2018-Jun-17 00:00N 44°12' E 014°04'  

Dump ship's entire track history